sensor_id;sensor_type;location;lat;lon;timestamp;pressure;altitude;pressure_sealevel;temperature;humidity
55656;BME280;41530;52.382;5.270;2023-02-11T00:00:14;103539.25;;;14.11;49.24
55656;BME280;41530;52.382;5.270;2023-02-11T00:02:41;103545.25;;;14.14;49.23
55656;BME280;41530;52.382;5.270;2023-02-11T00:05:07;103527.19;;;14.04;49.19
55656;BME280;41530;52.382;5.270;2023-02-11T00:07:35;103548.88;;;14.12;49.25
55656;BME280;41530;52.382;5.270;2023-02-11T00:10:02;103553.34;;;14.11;49.31
55656;BME280;41530;52.382;5.270;2023-02-11T00:12:29;103537.09;;;13.99;49.39
55656;BME280;41530;52.382;5.270;2023-02-11T00:14:56;103548.34;;;14.04;49.15
55656;BME280;41530;52.382;5.270;2023-02-11T00:17:22;103547.63;;;14.00;49.33
55656;BME280;41530;52.382;5.270;2023-02-11T00:19:52;103564.19;;;14.05;49.28
55656;BME280;41530;52.382;5.270;2023-02-11T00:22:19;103553.59;;;14.05;49.39
55656;BME280;41530;52.382;5.270;2023-02-11T00:24:46;103568.63;;;14.05;49.37
55656;BME280;41530;52.382;5.270;2023-02-11T00:27:12;103550.41;;;13.97;49.14
55656;BME280;41530;52.382;5.270;2023-02-11T00:29:39;103548.75;;;13.95;49.32
55656;BME280;41530;52.382;5.270;2023-02-11T00:32:06;103566.88;;;14.04;49.00
55656;BME280;41530;52.382;5.270;2023-02-11T00:34:35;103556.47;;;13.99;49.14
55656;BME280;41530;52.382;5.270;2023-02-11T00:37:02;103561.97;;;13.95;49.29
55656;BME280;41530;52.382;5.270;2023-02-11T00:39:28;103556.69;;;13.95;49.22
55656;BME280;41530;52.382;5.270;2023-02-11T00:41:56;103557.50;;;13.97;49.37
55656;BME280;41530;52.382;5.270;2023-02-11T00:44:23;103563.50;;;14.00;49.38
55656;BME280;41530;52.382;5.270;2023-02-11T00:46:49;103536.50;;;13.92;49.21
55656;BME280;41530;52.382;5.270;2023-02-11T00:49:16;103535.31;;;13.99;49.25
55656;BME280;41530;52.382;5.270;2023-02-11T00:51:42;103522.34;;;13.93;49.37
55656;BME280;41530;52.382;5.270;2023-02-11T00:54:09;103527.56;;;13.95;49.30
55656;BME280;41530;52.382;5.270;2023-02-11T00:56:36;103512.63;;;13.94;49.20
55656;BME280;41530;52.382;5.270;2023-02-11T00:59:02;103506.59;;;13.90;49.26
55656;BME280;41530;52.382;5.270;2023-02-11T01:01:29;103500.44;;;13.89;49.48
55656;BME280;41530;52.382;5.270;2023-02-11T01:03:55;103510.22;;;13.87;49.34
55656;BME280;41530;52.382;5.270;2023-02-11T01:06:22;103515.38;;;13.90;49.30
55656;BME280;41530;52.382;5.270;2023-02-11T01:08:49;103508.31;;;13.91;49.42
55656;BME280;41530;52.382;5.270;2023-02-11T01:11:18;103505.78;;;13.88;49.31
55656;BME280;41530;52.382;5.270;2023-02-11T01:13:46;103517.91;;;13.94;49.47
55656;BME280;41530;52.382;5.270;2023-02-11T01:16:13;103535.56;;;13.93;49.31
55656;BME280;41530;52.382;5.270;2023-02-11T01:18:40;103539.16;;;13.92;49.47
55656;BME280;41530;52.382;5.270;2023-02-11T01:21:09;103546.34;;;13.88;49.37
55656;BME280;41530;52.382;5.270;2023-02-11T01:23:36;103549.97;;;13.86;49.41
55656;BME280;41530;52.382;5.270;2023-02-11T01:26:03;103567.50;;;13.88;49.42
55656;BME280;41530;52.382;5.270;2023-02-11T01:28:30;103549.25;;;13.82;49.46
55656;BME280;41530;52.382;5.270;2023-02-11T01:30:59;103549.97;;;13.86;49.57
55656;BME280;41530;52.382;5.270;2023-02-11T01:33:25;103539.66;;;13.80;49.61
55656;BME280;41530;52.382;5.270;2023-02-11T01:35:52;103547.25;;;13.87;49.62
55656;BME280;41530;52.382;5.270;2023-02-11T01:38:21;103549.91;;;13.87;49.72
55656;BME280;41530;52.382;5.270;2023-02-11T01:40:51;103537.88;;;13.80;49.56
55656;BME280;41530;52.382;5.270;2023-02-11T01:43:19;103530.84;;;13.79;49.64
55656;BME280;41530;52.382;5.270;2023-02-11T01:48:35;103553.47;;;13.86;49.79
55656;BME280;41530;52.382;5.270;2023-02-11T01:54:10;103558.91;;;13.83;49.69
55656;BME280;41530;52.382;5.270;2023-02-11T01:56:59;103557.13;;;13.84;49.67
55656;BME280;41530;52.382;5.270;2023-02-11T02:02:17;103545.53;;;13.86;49.64
55656;BME280;41530;52.382;5.270;2023-02-11T02:04:54;103537.81;;;13.82;49.71
55656;BME280;41530;52.382;5.270;2023-02-11T02:07:50;103540.25;;;13.86;49.84
55656;BME280;41530;52.382;5.270;2023-02-11T02:10:22;103535.09;;;13.83;49.81
55656;BME280;41530;52.382;5.270;2023-02-11T02:12:49;103522.91;;;13.79;49.75
55656;BME280;41530;52.382;5.270;2023-02-11T02:15:32;103534.94;;;13.86;49.77
55656;BME280;41530;52.382;5.270;2023-02-11T02:18:34;103535.88;;;13.85;49.92
55656;BME280;41530;52.382;5.270;2023-02-11T02:38:00;103518.34;;;13.83;49.91
55656;BME280;41530;52.382;5.270;2023-02-11T02:43:06;103536.88;;;13.83;49.75
55656;BME280;41530;52.382;5.270;2023-02-11T02:45:34;103534.22;;;13.83;49.68
55656;BME280;41530;52.382;5.270;2023-02-11T02:48:01;103524.56;;;13.82;49.77
55656;BME280;41530;52.382;5.270;2023-02-11T02:50:30;103525.38;;;13.84;49.85
55656;BME280;41530;52.382;5.270;2023-02-11T02:53:19;103519.22;;;13.83;49.67
55656;BME280;41530;52.382;5.270;2023-02-11T03:04:20;103513.94;;;13.83;49.85
55656;BME280;41530;52.382;5.270;2023-02-11T03:09:26;103519.28;;;13.82;49.72
55656;BME280;41530;52.382;5.270;2023-02-11T03:11:55;103508.75;;;13.80;49.58
55656;BME280;41530;52.382;5.270;2023-02-11T03:14:24;103512.25;;;13.81;49.78
55656;BME280;41530;52.382;5.270;2023-02-11T03:16:54;103506.97;;;13.81;49.75
55656;BME280;41530;52.382;5.270;2023-02-11T03:19:27;103496.44;;;13.79;49.69
55656;BME280;41530;52.382;5.270;2023-02-11T03:21:55;103501.75;;;13.79;49.69
55656;BME280;41530;52.382;5.270;2023-02-11T03:24:32;103491.22;;;13.78;49.72
55656;BME280;41530;52.382;5.270;2023-02-11T03:27:11;103485.13;;;13.76;49.73
55656;BME280;41530;52.382;5.270;2023-02-11T03:29:57;103488.56;;;13.78;49.81
55656;BME280;41530;52.382;5.270;2023-02-11T03:32:28;103484.19;;;13.77;49.61
55656;BME280;41530;52.382;5.270;2023-02-11T03:35:03;103483.34;;;13.76;49.63
55656;BME280;41530;52.382;5.270;2023-02-11T03:37:36;103481.66;;;13.74;49.44
55656;BME280;41530;52.382;5.270;2023-02-11T03:40:34;103488.69;;;13.75;49.81
55656;BME280;41530;52.382;5.270;2023-02-11T03:43:02;103490.47;;;13.74;49.89
55656;BME280;41530;52.382;5.270;2023-02-11T03:45:31;103496.63;;;13.75;49.78
55656;BME280;41530;52.382;5.270;2023-02-11T03:48:06;103495.81;;;13.73;49.88
55656;BME280;41530;52.382;5.270;2023-02-11T03:50:35;103497.59;;;13.72;49.89
55656;BME280;41530;52.382;5.270;2023-02-11T03:53:03;103494.09;;;13.72;50.10
55656;BME280;41530;52.382;5.270;2023-02-11T03:55:34;103494.91;;;13.74;49.92
55656;BME280;41530;52.382;5.270;2023-02-11T03:58:02;103495.81;;;13.73;49.89
55656;BME280;41530;52.382;5.270;2023-02-11T04:00:34;103498.47;;;13.73;49.99
55656;BME280;41530;52.382;5.270;2023-02-11T04:03:02;103487.03;;;13.72;49.84
55656;BME280;41530;52.382;5.270;2023-02-11T04:05:29;103489.75;;;13.71;50.06
55656;BME280;41530;52.382;5.270;2023-02-11T04:07:56;103485.38;;;13.70;49.89
55656;BME280;41530;52.382;5.270;2023-02-11T04:10:22;103476.59;;;13.69;49.98
55656;BME280;41530;52.382;5.270;2023-02-11T04:12:49;103486.25;;;13.70;50.00
55656;BME280;41530;52.382;5.270;2023-02-11T04:15:15;103483.66;;;13.69;50.19
55656;BME280;41530;52.382;5.270;2023-02-11T04:17:42;103488.94;;;13.69;50.10
55656;BME280;41530;52.382;5.270;2023-02-11T04:20:10;103488.03;;;13.70;50.00
55656;BME280;41530;52.382;5.270;2023-02-11T04:22:37;103492.47;;;13.69;50.12
55656;BME280;41530;52.382;5.270;2023-02-11T04:25:04;103495.97;;;13.70;49.96
55656;BME280;41530;52.382;5.270;2023-02-11T04:27:31;103493.38;;;13.68;49.99
55656;BME280;41530;52.382;5.270;2023-02-11T04:29:58;103494.25;;;13.69;50.20
55656;BME280;41530;52.382;5.270;2023-02-11T04:32:24;103494.25;;;13.69;50.04
55656;BME280;41530;52.382;5.270;2023-02-11T04:34:51;103502.28;;;13.66;50.02
55656;BME280;41530;52.382;5.270;2023-02-11T04:37:18;103499.66;;;13.66;50.24
55656;BME280;41530;52.382;5.270;2023-02-11T04:39:45;103509.44;;;13.64;50.18
55656;BME280;41530;52.382;5.270;2023-02-11T04:42:11;103511.09;;;13.66;50.15
55656;BME280;41530;52.382;5.270;2023-02-11T04:44:38;103506.72;;;13.65;50.05
55656;BME280;41530;52.382;5.270;2023-02-11T04:47:04;103517.31;;;13.65;50.01
55656;BME280;41530;52.382;5.270;2023-02-11T04:49:31;103520.75;;;13.67;50.12
55656;BME280;41530;52.382;5.270;2023-02-11T04:51:57;103518.97;;;13.68;50.18
55656;BME280;41530;52.382;5.270;2023-02-11T04:54:24;103519.03;;;13.66;50.05
55656;BME280;41530;52.382;5.270;2023-02-11T04:56:51;103516.38;;;13.66;50.16
55656;BME280;41530;52.382;5.270;2023-02-11T04:59:17;103518.16;;;13.66;50.19
55656;BME280;41530;52.382;5.270;2023-02-11T05:01:44;103510.28;;;13.64;50.18
55656;BME280;41530;52.382;5.270;2023-02-11T05:04:10;103508.50;;;13.65;50.17
55656;BME280;41530;52.382;5.270;2023-02-11T05:06:38;103512.00;;;13.65;50.09
55656;BME280;41530;52.382;5.270;2023-02-11T05:09:05;103511.22;;;13.63;50.18
55656;BME280;41530;52.382;5.270;2023-02-11T05:11:32;103505.06;;;13.63;50.25
55656;BME280;41530;52.382;5.270;2023-02-11T05:13:58;103506.78;;;13.64;50.35
55656;BME280;41530;52.382;5.270;2023-02-11T05:16:25;103513.00;;;13.63;50.16
55656;BME280;41530;52.382;5.270;2023-02-11T05:18:52;103505.06;;;13.63;50.31
55656;BME280;41530;52.382;5.270;2023-02-11T05:21:21;103512.94;;;13.64;50.34
55656;BME280;41530;52.382;5.270;2023-02-11T05:23:47;103516.50;;;13.63;50.14
55656;BME280;41530;52.382;5.270;2023-02-11T05:26:14;103511.22;;;13.63;50.30
55656;BME280;41530;52.382;5.270;2023-02-11T05:28:41;103513.00;;;13.63;50.48
55656;BME280;41530;52.382;5.270;2023-02-11T05:31:09;103512.13;;;13.62;50.28
55656;BME280;41530;52.382;5.270;2023-02-11T05:33:36;103507.75;;;13.61;50.36
55656;BME280;41530;52.382;5.270;2023-02-11T05:36:06;103494.69;;;13.58;50.27
55656;BME280;41530;52.382;5.270;2023-02-11T05:38:33;103512.25;;;13.59;50.19
55656;BME280;41530;52.382;5.270;2023-02-11T05:41:01;103512.25;;;13.59;50.29
55656;BME280;41530;52.382;5.270;2023-02-11T05:43:28;103510.59;;;13.57;50.39
55656;BME280;41530;52.382;5.270;2023-02-11T05:45:55;103508.75;;;13.59;50.18
55656;BME280;41530;52.382;5.270;2023-02-11T05:48:22;103505.25;;;13.58;50.37
55656;BME280;41530;52.382;5.270;2023-02-11T05:50:49;103504.41;;;13.58;50.41
55656;BME280;41530;52.382;5.270;2023-02-11T05:53:15;103506.09;;;13.59;50.41
55656;BME280;41530;52.382;5.270;2023-02-11T05:55:42;103513.19;;;13.58;50.28
55656;BME280;41530;52.382;5.270;2023-02-11T05:58:09;103514.97;;;13.58;50.32
55656;BME280;41530;52.382;5.270;2023-02-11T06:00:36;103518.41;;;13.60;50.24
55656;BME280;41530;52.382;5.270;2023-02-11T06:03:03;103516.75;;;13.57;50.49
55656;BME280;41530;52.382;5.270;2023-02-11T06:05:30;103523.69;;;13.60;50.44
55656;BME280;41530;52.382;5.270;2023-02-11T06:07:57;103522.81;;;13.59;50.27
55656;BME280;41530;52.382;5.270;2023-02-11T06:10:24;103525.56;;;13.58;50.46
55656;BME280;41530;52.382;5.270;2023-02-11T06:12:51;103525.47;;;13.59;50.47
55656;BME280;41530;52.382;5.270;2023-02-11T06:15:17;103520.19;;;13.59;50.48
55656;BME280;41530;52.382;5.270;2023-02-11T06:17:44;103519.31;;;13.59;50.38
55656;BME280;41530;52.382;5.270;2023-02-11T06:20:11;103515.84;;;13.58;50.42
55656;BME280;41530;52.382;5.270;2023-02-11T06:22:37;103524.59;;;13.59;50.51
55656;BME280;41530;52.382;5.270;2023-02-11T06:25:04;103513.19;;;13.58;50.42
55656;BME280;41530;52.382;5.270;2023-02-11T06:27:31;103520.28;;;13.58;50.62
55656;BME280;41530;52.382;5.270;2023-02-11T06:29:57;103514.19;;;13.55;50.25
55656;BME280;41530;52.382;5.270;2023-02-11T06:32:26;103514.97;;;13.58;50.65
55656;BME280;41530;52.382;5.270;2023-02-11T06:35:11;103516.88;;;13.54;50.67
55656;BME280;41530;52.382;5.270;2023-02-11T06:37:38;103514.22;;;13.54;50.77
55656;BME280;41530;52.382;5.270;2023-02-11T06:40:05;103503.59;;;13.55;50.70
55656;BME280;41530;52.382;5.270;2023-02-11T06:42:32;103509.88;;;13.53;50.71
55656;BME280;41530;52.382;5.270;2023-02-11T06:45:01;103507.28;;;13.51;50.52
55656;BME280;41530;52.382;5.270;2023-02-11T06:47:28;103518.53;;;13.57;50.53
55656;BME280;41530;52.382;5.270;2023-02-11T06:49:54;103524.75;;;13.55;50.39
55656;BME280;41530;52.382;5.270;2023-02-11T06:52:21;103527.41;;;13.55;50.64
55656;BME280;41530;52.382;5.270;2023-02-11T06:54:47;103531.78;;;13.57;50.48
55656;BME280;41530;52.382;5.270;2023-02-11T06:57:14;103523.84;;;13.57;50.50
55656;BME280;41530;52.382;5.270;2023-02-11T06:59:40;103527.41;;;13.55;50.62
55656;BME280;41530;52.382;5.270;2023-02-11T07:02:10;103521.19;;;13.57;50.72
55656;BME280;41530;52.382;5.270;2023-02-11T07:04:37;103520.38;;;13.54;50.37
55656;BME280;41530;52.382;5.270;2023-02-11T07:07:03;103522.97;;;13.56;50.76
55656;BME280;41530;52.382;5.270;2023-02-11T07:09:30;103527.41;;;13.55;50.57
55656;BME280;41530;52.382;5.270;2023-02-11T07:11:56;103526.44;;;13.58;50.81
55656;BME280;41530;52.382;5.270;2023-02-11T07:14:23;103535.13;;;13.60;50.70
55656;BME280;41530;52.382;5.270;2023-02-11T07:16:50;103541.22;;;13.62;50.70
55656;BME280;41530;52.382;5.270;2023-02-11T07:19:16;103535.03;;;13.63;50.75
55656;BME280;41530;52.382;5.270;2023-02-11T07:21:43;103535.94;;;13.62;50.74
55656;BME280;41530;52.382;5.270;2023-02-11T07:24:09;103542.84;;;13.66;50.48
55656;BME280;41530;52.382;5.270;2023-02-11T07:26:37;103539.28;;;13.67;50.61
55656;BME280;41530;52.382;5.270;2023-02-11T07:29:04;103547.16;;;13.69;50.45
55656;BME280;41530;52.382;5.270;2023-02-11T07:31:31;103544.50;;;13.69;50.36
55656;BME280;41530;52.382;5.270;2023-02-11T07:34:00;103553.31;;;13.69;50.26
55656;BME280;41530;52.382;5.270;2023-02-11T07:36:29;103553.25;;;13.71;50.37
55656;BME280;41530;52.382;5.270;2023-02-11T07:38:57;103552.28;;;13.72;50.16
55656;BME280;41530;52.382;5.270;2023-02-11T07:41:26;103556.66;;;13.73;50.18
55656;BME280;41530;52.382;5.270;2023-02-11T07:43:53;103557.53;;;13.73;50.54
55656;BME280;41530;52.382;5.270;2023-02-11T07:46:25;103564.56;;;13.74;50.47
55656;BME280;41530;52.382;5.270;2023-02-11T07:48:52;103563.69;;;13.74;50.52
55656;BME280;41530;52.382;5.270;2023-02-11T07:51:22;103565.41;;;13.75;50.59
55656;BME280;41530;52.382;5.270;2023-02-11T07:53:50;103561.91;;;13.74;50.76
55656;BME280;41530;52.382;5.270;2023-02-11T07:56:18;103563.56;;;13.77;50.67
55656;BME280;41530;52.382;5.270;2023-02-11T07:58:45;103560.00;;;13.78;50.87
55656;BME280;41530;52.382;5.270;2023-02-11T08:01:17;103565.25;;;13.79;50.72
55656;BME280;41530;52.382;5.270;2023-02-11T08:03:44;103561.72;;;13.79;51.14
55656;BME280;41530;52.382;5.270;2023-02-11T08:06:13;103568.75;;;13.80;51.24
55656;BME280;41530;52.382;5.270;2023-02-11T08:08:40;103566.00;;;13.83;51.54
55656;BME280;41530;52.382;5.270;2023-02-11T08:11:10;103563.28;;;13.84;51.78
55656;BME280;41530;52.382;5.270;2023-02-11T08:13:37;103572.00;;;13.86;51.83
55656;BME280;41530;52.382;5.270;2023-02-11T08:16:04;103565.78;;;13.87;51.72
55656;BME280;41530;52.382;5.270;2023-02-11T08:18:32;103565.66;;;13.90;51.99
55656;BME280;41530;52.382;5.270;2023-02-11T08:21:06;103566.47;;;13.93;51.59
55656;BME280;41530;52.382;5.270;2023-02-11T08:23:36;103562.84;;;13.95;52.06
55656;BME280;41530;52.382;5.270;2023-02-11T08:26:11;103573.28;;;13.98;52.01
55656;BME280;41530;52.382;5.270;2023-02-11T08:28:40;103577.59;;;14.01;51.93
55656;BME280;41530;52.382;5.270;2023-02-11T08:31:09;103580.19;;;14.02;51.54
55656;BME280;41530;52.382;5.270;2023-02-11T08:33:36;103581.84;;;14.05;51.72
55656;BME280;41530;52.382;5.270;2023-02-11T08:36:10;103576.56;;;14.05;51.91
55656;BME280;41530;52.382;5.270;2023-02-11T08:38:37;103587.09;;;14.06;51.62
55656;BME280;41530;52.382;5.270;2023-02-11T08:41:04;103586.09;;;14.09;51.43
55656;BME280;41530;52.382;5.270;2023-02-11T08:43:31;103587.88;;;14.08;51.37
55656;BME280;41530;52.382;5.270;2023-02-11T08:45:59;103586.09;;;14.09;51.46
55656;BME280;41530;52.382;5.270;2023-02-11T08:48:28;103587.78;;;14.11;51.58
55656;BME280;41530;52.382;5.270;2023-02-11T08:50:55;103585.97;;;14.12;51.47
55656;BME280;41530;52.382;5.270;2023-02-11T08:53:22;103587.84;;;14.10;51.44
55656;BME280;41530;52.382;5.270;2023-02-11T08:55:53;103588.59;;;14.12;51.51
55656;BME280;41530;52.382;5.270;2023-02-11T08:58:21;103592.22;;;14.11;51.32
55656;BME280;41530;52.382;5.270;2023-02-11T09:00:48;103592.06;;;14.14;51.27
55656;BME280;41530;52.382;5.270;2023-02-11T09:03:16;103597.34;;;14.14;51.37
55656;BME280;41530;52.382;5.270;2023-02-11T09:05:48;103600.91;;;14.13;51.41
55656;BME280;41530;52.382;5.270;2023-02-11T09:08:15;103607.94;;;14.14;51.23
55656;BME280;41530;52.382;5.270;2023-02-11T09:10:42;103616.75;;;14.14;51.29
55656;BME280;41530;52.382;5.270;2023-02-11T09:13:09;103619.34;;;14.16;51.20
55656;BME280;41530;52.382;5.270;2023-02-11T09:15:36;103609.72;;;14.13;51.23
55656;BME280;41530;52.382;5.270;2023-02-11T09:18:02;103618.47;;;14.15;51.25
55656;BME280;41530;52.382;5.270;2023-02-11T09:20:30;103614.09;;;14.14;51.33
55656;BME280;41530;52.382;5.270;2023-02-11T09:22:57;103622.91;;;14.15;51.32
55656;BME280;41530;52.382;5.270;2023-02-11T09:25:24;103615.06;;;14.12;51.21
55656;BME280;41530;52.382;5.270;2023-02-11T09:27:51;103624.75;;;14.13;51.36
55656;BME280;41530;52.382;5.270;2023-02-11T09:30:19;103629.13;;;14.14;51.29
55656;BME280;41530;52.382;5.270;2023-02-11T09:32:46;103634.41;;;14.14;51.17
55656;BME280;41530;52.382;5.270;2023-02-11T09:35:12;103633.56;;;14.13;51.28
55656;BME280;41530;52.382;5.270;2023-02-11T09:37:39;103624.69;;;14.14;51.17
55656;BME280;41530;52.382;5.270;2023-02-11T09:40:06;103623.81;;;14.14;51.33
55656;BME280;41530;52.382;5.270;2023-02-11T09:45:18;103643.84;;;14.21;51.89
55656;BME280;41530;52.382;5.270;2023-02-11T09:47:49;103652.59;;;14.23;52.06
55656;BME280;41530;52.382;5.270;2023-02-11T09:50:25;103659.53;;;14.25;52.28
55656;BME280;41530;52.382;5.270;2023-02-11T09:53:19;103664.78;;;14.27;52.27
55656;BME280;41530;52.382;5.270;2023-02-11T09:55:51;103661.16;;;14.30;52.08
55656;BME280;41530;52.382;5.270;2023-02-11T09:58:29;103658.38;;;14.33;52.08
55656;BME280;41530;52.382;5.270;2023-02-11T10:18:07;103674.47;;;14.50;52.06
55656;BME280;41530;52.382;5.270;2023-02-11T10:20:38;103684.16;;;14.51;52.62
55656;BME280;41530;52.382;5.270;2023-02-11T10:23:20;103687.72;;;14.50;52.28
55656;BME280;41530;52.382;5.270;2023-02-11T10:25:49;103700.97;;;14.50;52.04
55656;BME280;41530;52.382;5.270;2023-02-11T10:28:20;103705.34;;;14.51;52.07
55656;BME280;41530;52.382;5.270;2023-02-11T10:31:00;103702.75;;;14.49;52.00
55656;BME280;41530;52.382;5.270;2023-02-11T10:36:05;103696.53;;;14.50;52.41
55656;BME280;41530;52.382;5.270;2023-02-11T10:38:32;103695.59;;;14.51;52.09
55656;BME280;41530;52.382;5.270;2023-02-11T10:40:59;103710.56;;;14.52;52.10
55656;BME280;41530;52.382;5.270;2023-02-11T10:43:26;103706.94;;;14.55;52.24
55656;BME280;41530;52.382;5.270;2023-02-11T10:45:55;103706.00;;;14.56;52.26
55656;BME280;41530;52.382;5.270;2023-02-11T10:53:39;103703.19;;;14.60;52.48
55656;BME280;41530;52.382;5.270;2023-02-11T10:56:06;103705.78;;;14.62;52.26
55656;BME280;41530;52.382;5.270;2023-02-11T10:58:43;103706.56;;;14.64;52.48
55656;BME280;41530;52.382;5.270;2023-02-11T11:01:12;103711.06;;;14.62;51.96
55656;BME280;41530;52.382;5.270;2023-02-11T11:03:51;103711.00;;;14.64;52.01
55656;BME280;41530;52.382;5.270;2023-02-11T11:06:29;103711.88;;;14.64;52.08
55656;BME280;41530;52.382;5.270;2023-02-11T11:08:57;103706.56;;;14.64;51.87
55656;BME280;41530;52.382;5.270;2023-02-11T11:11:25;103705.72;;;14.64;52.23
55656;BME280;41530;52.382;5.270;2023-02-11T11:16:32;103711.72;;;14.67;52.12
55656;BME280;41530;52.382;5.270;2023-02-11T11:24:22;103726.69;;;14.68;52.09
55656;BME280;41530;52.382;5.270;2023-02-11T11:26:55;103731.06;;;14.69;51.77
55656;BME280;41530;52.382;5.270;2023-02-11T11:29:30;103728.47;;;14.68;52.08
55656;BME280;41530;52.382;5.270;2023-02-11T11:32:00;103736.44;;;14.68;52.08
55656;BME280;41530;52.382;5.270;2023-02-11T11:34:34;103744.31;;;14.69;52.27
55656;BME280;41530;52.382;5.270;2023-02-11T11:37:12;103739.03;;;14.69;52.47
55656;BME280;41530;52.382;5.270;2023-02-11T11:39:50;103742.47;;;14.71;52.53
55656;BME280;41530;52.382;5.270;2023-02-11T11:42:32;103750.44;;;14.71;52.65
55656;BME280;41530;52.382;5.270;2023-02-11T11:50:34;103744.16;;;14.74;52.69
55656;BME280;41530;52.382;5.270;2023-02-11T11:53:28;103737.00;;;14.76;52.96
55656;BME280;41530;52.382;5.270;2023-02-11T11:56:03;103742.25;;;14.77;52.75
55656;BME280;41530;52.382;5.270;2023-02-11T11:58:31;103736.06;;;14.77;52.76
55656;BME280;41530;52.382;5.270;2023-02-11T12:06:18;103726.19;;;14.80;52.92
55656;BME280;41530;52.382;5.270;2023-02-11T12:17:32;103732.22;;;14.84;52.85
55656;BME280;41530;52.382;5.270;2023-02-11T12:20:20;103737.47;;;14.85;52.98
55656;BME280;41530;52.382;5.270;2023-02-11T12:25:55;103728.72;;;14.83;53.07
55656;BME280;41530;52.382;5.270;2023-02-11T12:36:33;103735.56;;;14.89;53.50
55656;BME280;41530;52.382;5.270;2023-02-11T12:39:11;103727.56;;;14.90;53.21
55656;BME280;41530;52.382;5.270;2023-02-11T12:56:40;103734.31;;;14.97;53.47
55656;BME280;41530;52.382;5.270;2023-02-11T13:01:48;103729.81;;;15.00;53.36
55656;BME280;41530;52.382;5.270;2023-02-11T13:04:22;103728.81;;;15.02;53.33
55656;BME280;41530;52.382;5.270;2023-02-11T13:06:58;103722.59;;;15.03;53.35
55656;BME280;41530;52.382;5.270;2023-02-11T13:09:33;103720.81;;;15.04;53.32
55656;BME280;41530;52.382;5.270;2023-02-11T13:12:02;103721.56;;;15.06;53.25
55656;BME280;41530;52.382;5.270;2023-02-11T13:14:53;103714.53;;;15.05;53.29
55656;BME280;41530;52.382;5.270;2023-02-11T13:17:31;103715.41;;;15.05;53.15
55656;BME280;41530;52.382;5.270;2023-02-11T13:20:11;103714.53;;;15.05;52.96
55656;BME280;41530;52.382;5.270;2023-02-11T13:22:49;103720.66;;;15.07;53.39
55656;BME280;41530;52.382;5.270;2023-02-11T13:30:53;103723.16;;;15.10;53.05
55656;BME280;41530;52.382;5.270;2023-02-11T13:33:40;103717.00;;;15.09;53.31
55656;BME280;41530;52.382;5.270;2023-02-11T13:36:12;103721.44;;;15.09;52.84
55656;BME280;41530;52.382;5.270;2023-02-11T13:38:40;103721.38;;;15.10;52.72
55656;BME280;41530;52.382;5.270;2023-02-11T13:41:25;103715.22;;;15.10;53.20
55656;BME280;41530;52.382;5.270;2023-02-11T13:51:51;103712.44;;;15.13;53.11
55656;BME280;41530;52.382;5.270;2023-02-11T13:54:22;103714.97;;;15.16;53.19
55656;BME280;41530;52.382;5.270;2023-02-11T14:02:25;103708.75;;;15.17;53.36
55656;BME280;41530;52.382;5.270;2023-02-11T14:05:25;103710.66;;;15.13;53.20
55656;BME280;41530;52.382;5.270;2023-02-11T14:16:16;103727.16;;;15.20;53.16
55656;BME280;41530;52.382;5.270;2023-02-11T14:19:01;103727.16;;;15.20;52.89
55656;BME280;41530;52.382;5.270;2023-02-11T14:21:34;103724.50;;;15.20;53.39
55656;BME280;41530;52.382;5.270;2023-02-11T14:26:50;103730.59;;;15.22;53.26
55656;BME280;41530;52.382;5.270;2023-02-11T14:42:52;103726.81;;;15.27;52.93
55656;BME280;41530;52.382;5.270;2023-02-11T14:45:23;103725.97;;;15.27;53.18
55656;BME280;41530;52.382;5.270;2023-02-11T14:48:02;103736.44;;;15.30;53.41
55656;BME280;41530;52.382;5.270;2023-02-11T14:50:37;103730.13;;;15.32;53.30
55656;BME280;41530;52.382;5.270;2023-02-11T14:53:06;103734.56;;;15.32;53.36
55656;BME280;41530;52.382;5.270;2023-02-11T14:55:35;103739.81;;;15.33;53.25
55656;BME280;41530;52.382;5.270;2023-02-11T14:58:14;103739.75;;;15.35;53.17
55656;BME280;41530;52.382;5.270;2023-02-11T15:03:29;103747.63;;;15.37;53.61
55656;BME280;41530;52.382;5.270;2023-02-11T15:06:14;103746.72;;;15.38;53.45
55656;BME280;41530;52.382;5.270;2023-02-11T15:08:53;103741.41;;;15.38;53.45
55656;BME280;41530;52.382;5.270;2023-02-11T15:11:23;103737.88;;;15.37;53.37
55656;BME280;41530;52.382;5.270;2023-02-11T15:13:50;103732.59;;;15.37;53.22
55656;BME280;41530;52.382;5.270;2023-02-11T15:16:26;103747.50;;;15.40;53.53
55656;BME280;41530;52.382;5.270;2023-02-11T15:18:56;103737.75;;;15.40;53.40
55656;BME280;41530;52.382;5.270;2023-02-11T15:21:28;103743.13;;;15.39;53.37
55656;BME280;41530;52.382;5.270;2023-02-11T15:24:02;103749.22;;;15.41;53.54
55656;BME280;41530;52.382;5.270;2023-02-11T15:26:32;103747.56;;;15.38;53.22
55656;BME280;41530;52.382;5.270;2023-02-11T15:28:59;103746.66;;;15.39;53.28
55656;BME280;41530;52.382;5.270;2023-02-11T15:31:26;103754.53;;;15.41;53.31
55656;BME280;41530;52.382;5.270;2023-02-11T15:33:53;103757.19;;;15.41;53.22
55656;BME280;41530;52.382;5.270;2023-02-11T15:36:23;103759.78;;;15.42;53.29
55656;BME280;41530;52.382;5.270;2023-02-11T15:39:54;103758.06;;;15.41;53.75
55656;BME280;41530;52.382;5.270;2023-02-11T15:42:26;103757.19;;;15.41;53.42
55656;BME280;41530;52.382;5.270;2023-02-11T15:47:47;103759.78;;;15.42;53.21
55656;BME280;41530;52.382;5.270;2023-02-11T15:50:23;103761.56;;;15.42;53.23
55656;BME280;41530;52.382;5.270;2023-02-11T15:52:51;103758.91;;;15.42;53.04
55656;BME280;41530;52.382;5.270;2023-02-11T15:55:19;103766.94;;;15.40;53.30
55656;BME280;41530;52.382;5.270;2023-02-11T15:57:55;103755.41;;;15.41;53.38